createdAt,value
2022-12-08T00:02:20.725Z,97051.50
2022-12-08T00:06:26.009Z,97051.50
2022-12-08T00:10:48.351Z,97047.25
2022-12-08T00:14:50.189Z,97039.59
2022-12-08T00:18:51.527Z,97032.50
2022-12-08T00:22:52.855Z,97029.72
2022-12-08T00:26:54.175Z,97026.53
2022-12-08T00:30:56.918Z,97028.75
2022-12-08T00:34:58.267Z,97034.63
2022-12-08T00:38:59.745Z,97027.44
2022-12-08T00:43:01.073Z,97032.19
2022-12-08T00:47:03.887Z,97031.25
2022-12-08T00:51:05.345Z,97033.72
2022-12-08T00:55:06.956Z,97035.00
2022-12-08T00:59:08.285Z,97032.88
2022-12-08T01:03:11.327Z,97020.94
2022-12-08T01:07:12.720Z,97024.22
2022-12-08T01:11:17.819Z,97023.19
2022-12-08T01:15:19.198Z,97021.56
2022-12-08T01:19:21.897Z,97023.28
2022-12-08T01:23:23.208Z,97025.38
2022-12-08T01:27:24.544Z,97018.78
2022-12-08T01:31:25.974Z,97035.81
2022-12-08T01:35:28.697Z,97025.88
2022-12-08T01:39:30.035Z,97022.31
2022-12-08T01:43:48.211Z,97012.59
2022-12-08T01:47:51.706Z,97012.91
2022-12-08T01:51:56.466Z,97009.28
2022-12-08T01:55:59.407Z,97006.25
2022-12-08T02:00:02.756Z,97007.81
2022-12-08T02:04:04.690Z,97007.00
2022-12-08T02:08:08.695Z,97006.56
2022-12-08T02:12:10.314Z,96995.69
2022-12-08T02:16:17.588Z,96990.94
2022-12-08T02:20:41.239Z,96991.81
2022-12-08T02:24:48.138Z,96981.50
2022-12-08T02:29:05.252Z,96978.06
2022-12-08T02:33:19.016Z,96978.84
2022-12-08T02:37:26.386Z,96972.88
2022-12-08T02:41:31.964Z,96970.88
2022-12-08T02:45:36.486Z,96971.78
2022-12-08T02:49:37.810Z,96964.50
2022-12-08T02:53:41.134Z,96966.47
2022-12-08T02:57:48.166Z,96953.88
2022-12-08T03:02:02.041Z,96941.66
2022-12-08T03:06:06.436Z,96944.69
2022-12-08T03:10:10.662Z,96936.97
2022-12-08T03:14:14.153Z,96935.69
2022-12-08T03:18:16.537Z,96934.88
2022-12-08T03:22:21.961Z,96933.28
2022-12-08T03:26:25.334Z,96932.00
2022-12-08T03:30:28.393Z,96919.50
2022-12-08T03:34:29.874Z,96923.31
2022-12-08T03:38:37.383Z,96926.41
2022-12-08T03:42:40.183Z,96909.75
2022-12-08T03:46:41.546Z,96916.28
2022-12-08T03:50:42.891Z,96925.09
2022-12-08T03:54:44.246Z,96915.03
2022-12-08T03:58:47.032Z,96923.69
2022-12-08T04:02:48.453Z,96920.97
2022-12-08T04:06:49.951Z,96912.31
2022-12-08T04:10:51.302Z,96906.50
2022-12-08T04:14:54.049Z,96911.19
2022-12-08T04:18:55.559Z,96905.88
2022-12-08T04:22:56.980Z,96908.06
2022-12-08T04:26:58.664Z,96905.91
2022-12-08T04:31:01.653Z,96904.06
2022-12-08T04:35:03.088Z,96909.16
2022-12-08T04:39:04.475Z,96902.00
2022-12-08T04:43:06.067Z,96904.50
2022-12-08T04:47:08.836Z,96910.31
2022-12-08T04:51:14.253Z,96911.44
2022-12-08T04:55:15.648Z,96903.78
2022-12-08T04:59:17.072Z,96905.13
2022-12-08T05:03:25.240Z,96903.88
2022-12-08T05:07:29.838Z,96915.88
2022-12-08T05:11:31.202Z,96913.56
2022-12-08T05:15:32.599Z,96913.28
2022-12-08T05:19:35.392Z,96909.72
2022-12-08T05:23:37.048Z,96897.97
2022-12-08T05:27:38.456Z,96897.81
2022-12-08T05:31:39.882Z,96885.75
2022-12-08T05:35:42.696Z,96889.00
2022-12-08T05:39:44.117Z,96890.88
2022-12-08T05:43:45.568Z,96889.16
2022-12-08T05:47:46.970Z,96890.59
2022-12-08T05:51:49.775Z,96895.94
2022-12-08T05:55:51.185Z,96892.56
2022-12-08T05:59:52.579Z,96892.28
2022-12-08T06:03:54.360Z,96891.50
2022-12-08T06:07:57.175Z,96900.13
2022-12-08T06:11:58.577Z,96894.38
2022-12-08T06:16:03.173Z,96892.72
2022-12-08T06:20:05.548Z,96887.13
2022-12-08T06:24:08.751Z,96886.84
2022-12-08T06:28:10.106Z,96885.94
2022-12-08T06:32:11.540Z,96885.97
2022-12-08T06:36:13.840Z,96892.16
2022-12-08T06:40:16.702Z,96899.91
2022-12-08T06:44:18.081Z,96889.50
2022-12-08T06:48:19.596Z,96895.94
2022-12-08T06:52:20.994Z,96891.56
2022-12-08T06:56:23.745Z,96894.22
2022-12-08T07:00:25.311Z,96905.22
2022-12-08T07:04:26.832Z,96897.09
2022-12-08T07:08:28.263Z,96898.13
2022-12-08T07:12:31.085Z,96899.22
2022-12-08T07:16:32.568Z,96907.13
2022-12-08T07:20:34.036Z,96897.81
2022-12-08T07:24:35.428Z,96898.97
2022-12-08T07:28:38.609Z,96896.50
2022-12-08T07:32:40.322Z,96894.75
2022-12-08T07:36:41.716Z,96887.47
2022-12-08T07:40:43.098Z,96886.09
2022-12-08T07:44:45.841Z,96892.28
2022-12-08T07:48:47.222Z,96903.66
2022-12-08T07:52:48.783Z,96906.66
2022-12-08T07:56:50.174Z,96896.22
2022-12-08T08:00:53.326Z,96896.31
2022-12-08T08:04:54.878Z,96894.75
2022-12-08T08:08:56.311Z,96896.31
2022-12-08T08:12:58.323Z,96896.75
2022-12-08T08:17:01.237Z,96906.47
2022-12-08T08:21:15.756Z,96902.94
2022-12-08T08:25:23.718Z,96901.72
2022-12-08T08:29:25.110Z,96898.50
2022-12-08T08:33:27.908Z,96904.47
2022-12-08T08:46:30.217Z,96907.19
2022-12-08T08:50:37.316Z,96894.91
2022-12-08T08:54:39.215Z,96899.53
2022-12-08T08:58:40.809Z,96894.63
2022-12-08T09:02:42.140Z,96897.09
2022-12-08T09:06:44.830Z,96895.97
2022-12-08T09:10:46.210Z,96897.44
2022-12-08T09:14:47.574Z,96899.50
2022-12-08T09:18:48.945Z,96893.00
2022-12-08T09:22:51.659Z,96904.44
2022-12-08T09:26:53.140Z,96892.66
2022-12-08T09:30:54.500Z,96889.41
2022-12-08T09:34:55.856Z,96884.53
2022-12-08T09:38:58.577Z,96884.88
2022-12-08T09:43:04.860Z,96876.16
2022-12-08T09:47:12.700Z,96871.72
2022-12-08T09:51:14.749Z,96869.59
2022-12-08T09:55:20.598Z,96872.94
2022-12-08T09:59:23.180Z,96871.06
2022-12-08T10:03:27.014Z,96863.94
2022-12-08T10:07:33.638Z,96859.94
2022-12-08T10:11:40.654Z,96852.03
2022-12-08T10:15:46.823Z,96853.72
2022-12-08T10:19:49.861Z,96845.09
2022-12-08T10:23:53.353Z,96839.44
2022-12-08T10:27:56.673Z,96833.16
2022-12-08T10:32:00.391Z,96834.50
2022-12-08T10:36:01.835Z,96827.69
2022-12-08T10:40:06.439Z,96821.19
2022-12-08T10:44:09.827Z,96809.72
2022-12-08T10:48:14.739Z,96813.53
2022-12-08T10:52:22.686Z,96799.91
2022-12-08T10:56:28.366Z,96809.13
2022-12-08T11:00:31.245Z,96803.97
2022-12-08T11:04:34.646Z,96803.97
2022-12-08T11:08:44.182Z,96796.91
2022-12-08T11:12:45.651Z,96794.47
2022-12-08T11:16:49.216Z,96790.09
2022-12-08T11:20:56.810Z,96789.84
2022-12-08T11:25:02.191Z,96778.66
2022-12-08T11:29:03.652Z,96778.66
2022-12-08T11:33:18.385Z,96771.28
2022-12-08T11:37:23.549Z,96771.56
2022-12-08T11:41:27.337Z,96764.47
2022-12-08T11:45:32.008Z,96753.53
2022-12-08T11:49:36.553Z,96752.75
2022-12-08T11:53:42.524Z,96743.47
2022-12-08T11:57:44.800Z,96743.47
2022-12-08T12:01:46.296Z,96745.38
2022-12-08T12:06:13.580Z,96748.09
2022-12-08T12:10:26.461Z,96740.44
2022-12-08T12:14:39.074Z,96742.66
2022-12-08T12:18:42.121Z,96733.66
2022-12-08T12:22:46.658Z,96728.44
2022-12-08T12:26:55.205Z,96723.50
2022-12-08T12:30:59.431Z,96732.78
2022-12-08T12:35:01.026Z,96725.13
2022-12-08T12:39:03.857Z,96721.59
2022-12-08T12:43:12.216Z,96713.16
2022-12-08T12:47:33.904Z,96713.66
2022-12-08T12:51:44.698Z,96709.00
2022-12-08T12:55:55.100Z,96705.47
2022-12-08T13:00:08.126Z,96698.38
2022-12-08T13:04:10.153Z,96704.41
2022-12-08T13:08:19.282Z,96709.56
2022-12-08T13:12:23.459Z,96704.69
2022-12-08T13:16:26.070Z,96713.69
2022-12-08T13:20:27.756Z,96706.06
2022-12-08T13:24:34.842Z,96700.06
2022-12-08T13:28:51.093Z,96691.91
2022-12-08T13:33:17.149Z,96687.00
2022-12-08T13:37:20.714Z,96698.44
2022-12-08T13:41:26.248Z,96694.06
2022-12-08T13:46:10.916Z,96690.78
2022-12-08T13:55:12.249Z,96711.25
2022-12-08T13:58:41.386Z,96707.69
2022-12-08T14:02:47.863Z,96704.69
2022-12-08T14:06:51.233Z,96706.34
2022-12-08T14:10:57.210Z,96696.25
2022-12-08T14:15:04.066Z,96698.72
2022-12-08T14:19:16.028Z,96694.03
2022-12-08T14:23:17.436Z,96686.09
2022-12-08T14:27:20.289Z,96685.81
2022-12-08T14:31:23.750Z,96678.69
2022-12-08T14:35:26.773Z,96679.25
2022-12-08T14:39:28.185Z,96677.34
2022-12-08T14:43:30.290Z,96677.88
2022-12-08T14:47:34.221Z,96672.41
2022-12-08T14:51:35.621Z,96665.28
2022-12-08T14:55:37.291Z,96661.13
2022-12-08T14:59:39.177Z,96663.88
2022-12-08T15:03:44.663Z,96662.72
2022-12-08T15:07:51.437Z,96665.94
2022-12-08T15:12:00.113Z,96661.88
2022-12-08T15:16:01.474Z,96663.63
2022-12-08T15:20:05.193Z,96660.91
2022-12-08T15:24:09.323Z,96668.91
2022-12-08T15:28:11.820Z,96661.56
2022-12-08T15:32:13.382Z,96665.53
2022-12-08T15:36:16.160Z,96669.72
2022-12-08T15:40:18.364Z,96673.44
2022-12-08T15:44:19.754Z,96677.19
2022-12-08T15:48:22.355Z,96675.63
2022-12-08T15:52:25.305Z,96684.81
2022-12-08T15:56:28.008Z,96682.06
2022-12-08T16:09:18.259Z,96687.69
2022-12-08T16:13:56.010Z,96688.22
2022-12-08T16:17:41.990Z,96685.56
2022-12-08T16:26:23.937Z,96690.00
2022-12-08T16:30:27.610Z,96692.19
2022-12-08T16:34:28.974Z,96695.22
2022-12-08T16:38:30.396Z,96684.13
2022-12-08T16:42:34.514Z,96687.94
2022-12-08T16:46:35.926Z,96683.75
2022-12-08T16:50:37.285Z,96688.94
2022-12-08T16:54:38.658Z,96687.84
2022-12-08T16:58:41.402Z,96692.19
2022-12-08T17:02:43.072Z,96682.31
2022-12-08T17:06:44.442Z,96688.63
2022-12-08T17:10:45.811Z,96679.09
2022-12-08T17:14:48.554Z,96678.13
2022-12-08T17:18:50.152Z,96674.63
2022-12-08T17:22:53.390Z,96673.53
2022-12-08T17:26:55.023Z,96663.91
2022-12-08T17:30:57.918Z,96663.59
2022-12-08T17:34:59.283Z,96665.78
2022-12-08T17:39:00.703Z,96664.66
2022-12-08T17:43:02.083Z,96664.16
2022-12-08T17:47:05.179Z,96662.56
2022-12-08T17:51:09.126Z,96676.75
2022-12-08T17:55:10.504Z,96673.53
2022-12-08T17:59:12.461Z,96671.28
2022-12-08T18:03:15.451Z,96669.06
2022-12-08T18:07:16.900Z,96670.75
2022-12-08T18:11:19.490Z,96671.34
2022-12-08T18:15:21.312Z,96668.88
2022-12-08T18:19:24.159Z,96662.06
2022-12-08T18:23:25.539Z,96657.94
2022-12-08T18:27:26.997Z,96650.84
2022-12-08T18:31:28.537Z,96650.56
2022-12-08T18:35:31.375Z,96644.09
2022-12-08T18:39:32.875Z,96650.66
2022-12-08T18:43:34.381Z,96656.59
2022-12-08T18:47:37.024Z,96644.41
2022-12-08T18:51:39.786Z,96651.19
2022-12-08T18:55:41.151Z,96642.75
2022-12-08T18:59:42.563Z,96627.53
2022-12-08T19:04:04.775Z,96640.84
2022-12-08T19:08:06.841Z,96655.31
2022-12-08T19:12:08.301Z,96652.94
2022-12-08T19:16:09.802Z,96654.53
2022-12-08T19:20:11.720Z,96663.88
2022-12-08T19:24:14.503Z,96659.69
2022-12-08T19:28:15.915Z,96659.94
2022-12-08T19:32:17.321Z,96664.81
2022-12-08T19:36:20.166Z,96653.38
2022-12-08T19:40:23.004Z,96656.41
2022-12-08T19:44:25.561Z,96659.69
2022-12-08T19:48:26.958Z,96663.56
2022-12-08T19:52:28.327Z,96655.63
2022-12-08T19:56:31.054Z,96650.22
2022-12-08T20:00:32.914Z,96658.81
2022-12-08T20:04:34.292Z,96649.59
2022-12-08T20:08:35.733Z,96646.56
2022-12-08T20:12:38.624Z,96636.53
2022-12-08T20:16:40.079Z,96646.66
2022-12-08T20:20:42.090Z,96647.22
2022-12-08T20:24:43.486Z,96637.09
2022-12-08T20:28:46.270Z,96640.06
2022-12-08T20:32:47.646Z,96640.63
2022-12-08T20:36:49.104Z,96641.94
2022-12-08T20:40:50.523Z,96646.59
2022-12-08T20:44:53.294Z,96643.84
2022-12-08T20:48:55.366Z,96645.53
2022-12-08T20:52:56.821Z,96646.88
2022-12-08T20:56:58.231Z,96647.22
2022-12-08T21:01:01.205Z,96654.22
2022-12-08T21:05:02.780Z,96656.72
2022-12-08T21:09:04.332Z,96655.88
2022-12-08T21:13:05.959Z,96654.50
2022-12-08T21:17:08.810Z,96644.69
2022-12-08T21:21:11.322Z,96640.59
2022-12-08T21:25:12.700Z,96640.28
2022-12-08T21:29:14.089Z,96638.66
2022-12-08T21:33:16.956Z,96644.13
2022-12-08T21:37:18.385Z,96646.28
2022-12-08T21:41:20.986Z,96650.41
2022-12-08T21:45:22.348Z,96647.09
2022-12-08T21:49:25.123Z,96644.94
2022-12-08T21:53:26.600Z,96644.59
2022-12-08T21:57:28.209Z,96642.38
2022-12-08T22:01:29.754Z,96634.44
2022-12-08T22:05:32.811Z,96640.47
2022-12-08T22:09:34.794Z,96631.16
2022-12-08T22:13:37.012Z,96629.56
2022-12-08T22:17:39.445Z,96626.25
2022-12-08T22:21:42.836Z,96620.63
2022-12-08T22:25:44.426Z,96614.16
2022-12-08T22:29:46.816Z,96614.88
2022-12-08T22:33:49.026Z,96617.28
2022-12-08T22:37:52.096Z,96613.28
2022-12-08T22:41:53.695Z,96612.97
2022-12-08T22:45:55.315Z,96616.50
2022-12-08T22:49:57.088Z,96611.81
2022-12-08T22:54:00.270Z,96611.31
2022-12-08T22:58:01.690Z,96606.94
2022-12-08T23:02:03.155Z,96611.59
2022-12-08T23:06:11.620Z,96609.91
2022-12-08T23:10:14.583Z,96603.13
2022-12-08T23:14:16.057Z,96610.22
2022-12-08T23:18:18.043Z,96607.75
2022-12-08T23:22:19.404Z,96600.44
2022-12-08T23:26:23.347Z,96614.00
2022-12-08T23:30:25.393Z,96607.13
2022-12-08T23:34:26.824Z,96601.34
2022-12-08T23:38:28.255Z,96592.88
2022-12-08T23:42:31.025Z,96581.69
2022-12-08T23:46:32.725Z,96588.47
2022-12-08T23:50:34.424Z,96575.13
2022-12-08T23:54:35.894Z,96575.66
2022-12-08T23:58:39.275Z,96562.91
